Aeroboteco Virtual Airlines! Uma nuvem a frente.



 INFORMAÇÕES METEOROLÓGICAS
METAR FOR HEAT
ADDS - METARS form results

(0509 UTC 28 October 2020)
Data provider http://aviationweather.gov/metar/data/
 
Forecast for: HEAT (ASYUT , EG)
Text: TAF HEAT 280500Z 2806/2912 34005G15KT CAVOK
Forecast period: 0600 UTC 28 October 2020 to 1200 UTC 29 October 2020
Forecast type: FROM: standard forecast or significant change
Winds: from the NNW (340 degrees) at 6 MPH (5 knots; 2.6 m/s)
gusting to 17 MPH (15 knots; 7.7 m/s)
Visibility: 6 or more miles (10+ km)
Ceiling: unknown
Clouds: missing
Weather: NSW  (no significant weather)

 MAPA DO AEROPORTO

 INFORMAÇÕES DA PISTA
Pista 13 Tamanho da pista 9905 ft Largura da pista 148 ft
Elevação da pista 737 ft Ranhura da pista 0 ft Proa da pista 130
Pista 31 Tamanho da pista 9905 ft Largura da pista 148 ft
Elevação da pista 772 ft Ranhura da pista 0 ft Proa da pista 310

 FREQUÊNCIAS DO AEROPORTO
Tipo EMR Nome FIRE Frequência 121.9 MHZ
Tipo RDO Nome RDO Frequência 585.9 MHZ
Tipo TWR Nome TWR Frequência 118.1 MHZ

 AUXÍLIOS DE NAVEGAÇÃO PRÓXIMOS AO AEROPORTO
Tipo VOR-DME Nome Asyut Frequência 117700 KHZ